Time;durP1;ratioP1;P1;durP2;ratioP2;P2;SDS_P1;SDS_P2;PMS_P1;PMS_P2;Temp;Humidity;BMP_temperature;BMP_pressure;BME280_temperature;BME280_humidity;BME280_pressure;Samples;Min_cycle;Max_cycle;Signal;HPM_P1;HPM_P2
2022/04/12 00:00:38;;;;;;;15.98;9.80;;;7.70;99.90;;;;;;5013151;28;20156;-88
2022/04/12 00:03:05;;;;;;;14.10;9.80;;;7.70;99.90;;;;;;5013529;28;20124;-89
2022/04/12 00:05:32;;;;;;;14.13;9.23;;;7.70;99.90;;;;;;4996849;28;20046;-89
2022/04/12 00:07:59;;;;;;;13.52;9.23;;;7.60;99.90;;;;;;5013022;28;20479;-88
2022/04/12 00:10:25;;;;;;;17.23;10.23;;;7.60;99.90;;;;;;4997556;28;20195;-89
2022/04/12 00:12:51;;;;;;;12.23;8.68;;;7.60;99.90;;;;;;4996649;28;20073;-89
2022/04/12 00:15:17;;;;;;;14.57;10.02;;;7.60;99.90;;;;;;5012895;28;20131;-88
2022/04/12 00:20:27;;;;;;;15.77;9.52;;;7.50;99.90;;;;;;4999945;28;20058;-89
2022/04/12 00:22:54;;;;;;;13.55;9.57;;;7.50;99.90;;;;;;4996546;28;20050;-89
2022/04/12 00:25:22;;;;;;;13.48;9.65;;;7.50;99.90;;;;;;5012846;28;20487;-89
2022/04/12 00:27:49;;;;;;;15.70;9.50;;;7.50;99.90;;;;;;4980799;28;20046;-89
2022/04/12 00:30:15;;;;;;;15.75;9.07;;;7.40;99.90;;;;;;4980567;28;20050;-89
2022/04/12 00:32:41;;;;;;;13.35;9.13;;;7.50;99.90;;;;;;5012802;28;20407;-88
2022/04/12 00:35:07;;;;;;;14.68;9.77;;;7.40;99.90;;;;;;5013439;28;20133;-89
2022/04/12 00:37:33;;;;;;;15.75;11.60;;;7.40;99.90;;;;;;5013023;28;20050;-89
2022/04/12 00:39:59;;;;;;;13.45;9.50;;;7.50;99.90;;;;;;4996193;28;20057;-88
2022/04/12 00:42:24;;;;;;;13.93;9.93;;;7.40;99.90;;;;;;4997063;28;20387;-88
2022/04/12 00:44:50;;;;;;;12.52;9.00;;;7.30;99.90;;;;;;5012624;28;20049;-88
2022/04/12 00:47:16;;;;;;;13.60;8.90;;;7.30;99.90;;;;;;5012108;28;20148;-88
2022/04/12 00:49:42;;;;;;;15.38;10.25;;;7.20;99.90;;;;;;5012205;28;20054;-88
2022/04/12 00:52:08;;;;;;;22.20;13.70;;;7.20;99.90;;;;;;4996079;28;20053;-88
2022/04/12 00:54:36;;;;;;;21.00;13.57;;;7.20;99.90;;;;;;4996337;28;20042;-88
2022/04/12 00:57:03;;;;;;;15.85;9.02;;;7.10;99.90;;;;;;5012217;28;20049;-88
2022/04/12 00:59:31;;;;;;;14.85;9.02;;;7.10;99.90;;;;;;5012753;28;20053;-89
2022/04/12 01:01:56;;;;;;;15.15;9.63;;;7.10;99.90;;;;;;4996395;28;20049;-89
2022/04/12 01:04:22;;;;;;;14.25;9.38;;;7.30;99.90;;;;;;5012556;28;20092;-89
2022/04/12 01:06:49;;;;;;;14.13;10.18;;;6.90;99.90;;;;;;4980712;28;20451;-88
2022/04/12 01:09:15;;;;;;;16.30;9.13;;;6.90;99.90;;;;;;5013843;28;20100;-88
2022/04/12 01:11:44;;;;;;;17.08;9.25;;;7.10;99.90;;;;;;4983890;28;20052;-88
2022/04/12 01:14:09;;;;;;;15.00;9.30;;;6.80;99.90;;;;;;5016241;28;20109;-89
2022/04/12 01:16:35;;;;;;;13.07;8.27;;;6.80;99.90;;;;;;4983694;28;20050;-89
2022/04/12 01:19:01;;;;;;;16.40;9.68;;;6.80;99.90;;;;;;5016164;28;20119;-89
2022/04/12 01:21:32;;;;;;;13.30;8.70;;;6.70;99.90;;;;;;5015936;28;20050;-88
2022/04/12 01:24:05;;;;;;;13.57;9.15;;;6.70;99.90;;;;;;5016425;28;20100;-88
2022/04/12 01:26:32;;;;;;;15.88;9.10;;;6.70;99.90;;;;;;5016385;28;20049;-88
2022/04/12 01:28:58;;;;;;;13.07;9.15;;;7.10;99.90;;;;;;5016079;28;20038;-88
2022/04/12 01:31:25;;;;;;;13.77;9.80;;;6.70;99.90;;;;;;4999734;28;20049;-88
2022/04/12 01:33:51;;;;;;;14.88;9.38;;;6.70;99.90;;;;;;4999555;28;20482;-88
2022/04/12 01:36:18;;;;;;;14.77;8.82;;;6.80;99.90;;;;;;5015616;28;20061;-88
2022/04/12 01:38:43;;;;;;;14.02;8.90;;;6.20;99.90;;;;;;4967965;28;20429;-88
2022/04/12 01:41:09;;;;;;;13.63;8.75;;;6.60;99.90;;;;;;4984112;28;20057;-88
2022/04/12 01:43:35;;;;;;;15.32;8.82;;;6.60;99.90;;;;;;4983513;28;20076;-89
2022/04/12 01:46:01;;;;;;;14.48;8.80;;;7.00;99.90;;;;;;4999087;28;20403;-88
2022/04/12 01:48:26;;;;;;;15.50;9.23;;;6.60;99.90;;;;;;5015724;28;20042;-88
2022/04/12 01:50:52;;;;;;;13.38;8.95;;;6.50;99.90;;;;;;4983903;28;20104;-88
2022/04/12 01:53:18;;;;;;;12.88;8.38;;;6.50;99.90;;;;;;4999599;28;20042;-89
2022/04/12 01:55:44;;;;;;;12.18;8.70;;;6.50;99.90;;;;;;4983840;28;20077;-89
2022/04/12 01:58:09;;;;;;;14.88;9.18;;;6.50;99.90;;;;;;4983769;28;20137;-88
2022/04/12 02:00:36;;;;;;;14.82;9.30;;;6.40;99.90;;;;;;5015462;28;20046;-88
2022/04/12 02:03:06;;;;;;;16.27;9.13;;;6.90;99.90;;;;;;4983027;28;20046;-89
2022/04/12 02:05:31;;;;;;;11.73;8.50;;;6.40;99.90;;;;;;5015369;28;20050;-89
2022/04/12 02:07:57;;;;;;;15.10;8.85;;;6.60;99.90;;;;;;4983089;28;20061;-89
2022/04/12 02:10:23;;;;;;;11.02;7.72;;;6.30;99.90;;;;;;4998865;28;20053;-89
2022/04/12 02:12:49;;;;;;;13.48;8.93;;;6.30;99.90;;;;;;5015974;28;20104;-89
2022/04/12 02:15:16;;;;;;;12.05;7.95;;;6.20;99.90;;;;;;4982303;28;20041;-88
2022/04/12 02:17:42;;;;;;;13.98;8.68;;;6.20;99.90;;;;;;4983334;28;20061;-88
2022/04/12 02:20:08;;;;;;;14.90;9.75;;;6.20;99.90;;;;;;4998457;28;20046;-89
2022/04/12 02:22:34;;;;;;;13.57;8.68;;;6.20;99.90;;;;;;4998850;28;20041;-89
2022/04/12 02:25:00;;;;;;;13.88;8.45;;;6.10;99.90;;;;;;4998530;28;20052;-88
2022/04/12 02:27:25;;;;;;;14.95;8.80;;;6.00;99.90;;;;;;5014654;28;20054;-89
2022/04/12 02:29:51;;;;;;;13.60;8.32;;;6.00;99.90;;;;;;4998593;28;20085;-89
2022/04/12 02:32:17;;;;;;;14.77;8.50;;;5.90;99.90;;;;;;4998343;28;20045;-89
2022/04/12 02:34:43;;;;;;;15.52;8.75;;;5.90;99.90;;;;;;4982349;28;20045;-89
2022/04/12 02:37:08;;;;;;;14.50;8.98;;;6.50;99.90;;;;;;5014155;28;20507;-89
2022/04/12 02:39:34;;;;;;;14.00;8.05;;;5.80;99.90;;;;;;4982530;28;20084;-89
2022/04/12 02:42:00;;;;;;;15.25;9.00;;;5.80;99.90;;;;;;5014730;28;20141;-89
2022/04/12 02:44:25;;;;;;;15.52;9.02;;;6.10;99.90;;;;;;5014948;28;20053;-89
2022/04/12 02:46:51;;;;;;;15.15;8.93;;;6.40;99.90;;;;;;4997865;28;20058;-89
2022/04/12 02:49:17;;;;;;;13.77;8.63;;;5.80;99.90;;;;;;5015192;28;20170;-89
2022/04/12 02:51:43;;;;;;;13.25;8.55;;;5.70;99.90;;;;;;4998400;28;20052;-89
2022/04/12 02:54:08;;;;;;;13.63;9.32;;;6.10;99.90;;;;;;4998122;28;20053;-89
2022/04/12 02:56:34;;;;;;;15.18;9.25;;;5.70;99.90;;;;;;4998667;28;20046;-89
2022/04/12 02:58:59;;;;;;;14.40;8.77;;;5.70;99.90;;;;;;4998061;28;20092;-89
2022/04/12 03:01:25;;;;;;;16.52;9.60;;;6.00;99.90;;;;;;4966126;28;20060;-89
2022/04/12 03:03:51;;;;;;;29.92;22.95;;;5.70;99.90;;;;;;4997990;28;20061;-89
2022/04/12 03:06:17;;;;;;;16.38;13.95;;;5.60;99.90;;;;;;5013958;28;20042;-89
2022/04/12 03:08:42;;;;;;;14.25;11.50;;;5.90;99.90;;;;;;4998125;28;20053;-90
2022/04/12 03:11:08;;;;;;;13.55;9.52;;;5.60;99.90;;;;;;4997914;28;20076;-89
2022/04/12 03:13:34;;;;;;;13.10;9.32;;;5.50;99.90;;;;;;4997736;28;20046;-88
2022/04/12 03:15:59;;;;;;;11.80;8.35;;;6.10;99.90;;;;;;4981424;28;20050;-89
2022/04/12 03:18:25;;;;;;;11.88;8.00;;;5.50;99.90;;;;;;5014328;28;20045;-89
2022/04/12 03:20:51;;;;;;;14.27;8.75;;;6.00;99.90;;;;;;4982072;28;20450;-89
2022/04/12 03:23:18;;;;;;;13.27;8.43;;;5.70;99.90;;;;;;4997580;28;20038;-89
2022/04/12 03:25:44;;;;;;;17.73;8.38;;;5.50;99.90;;;;;;4998313;28;20045;-90
2022/04/12 03:28:10;;;;;;;14.02;8.20;;;5.40;99.90;;;;;;4982279;28;20058;-89
2022/04/12 03:30:36;;;;;;;11.23;7.72;;;5.30;99.90;;;;;;4998200;28;20057;-89
2022/04/12 03:33:01;;;;;;;11.73;8.45;;;5.30;99.90;;;;;;4996942;28;20042;-89
2022/04/12 03:35:28;;;;;;;12.15;7.90;;;5.90;99.90;;;;;;4998142;28;20128;-89
2022/04/12 03:37:59;;;;;;;12.73;8.10;;;5.30;99.90;;;;;;5014481;28;20046;-89
2022/04/12 03:40:27;;;;;;;10.85;7.85;;;5.20;99.90;;;;;;5014411;28;20046;-89
2022/04/12 03:42:53;;;;;;;15.70;9.02;;;5.20;99.90;;;;;;4997440;28;20057;-89
2022/04/12 03:45:19;;;;;;;15.50;8.43;;;5.20;99.90;;;;;;4998034;28;20133;-89
2022/04/12 03:47:45;;;;;;;14.60;8.85;;;5.20;99.90;;;;;;4996531;28;20188;-89
2022/04/12 03:50:10;;;;;;;12.52;8.57;;;5.30;99.90;;;;;;5013706;28;20062;-89
2022/04/12 03:52:36;;;;;;;14.68;9.30;;;5.60;99.90;;;;;;4997100;28;20451;-89
2022/04/12 03:55:04;;;;;;;12.55;8.52;;;6.00;99.90;;;;;;4997046;28;20046;-89
2022/04/12 03:57:32;;;;;;;12.88;8.55;;;5.30;99.90;;;;;;4981979;28;20368;-90
2022/04/12 03:59:58;;;;;;;13.63;8.70;;;5.30;99.90;;;;;;4997039;28;20103;-89
2022/04/12 04:02:24;;;;;;;14.45;8.88;;;5.30;99.90;;;;;;5013518;28;20046;-89
2022/04/12 04:04:49;;;;;;;15.02;8.57;;;5.70;99.90;;;;;;4980889;28;20053;-89
2022/04/12 04:07:15;;;;;;;15.02;8.93;;;5.30;99.90;;;;;;5013159;28;20084;-90
2022/04/12 04:09:41;;;;;;;15.85;9.13;;;5.40;99.90;;;;;;4981367;28;20049;-89
2022/04/12 04:12:07;;;;;;;14.48;8.65;;;5.40;99.90;;;;;;4980991;28;20042;-89
2022/04/12 04:14:33;;;;;;;12.40;8.70;;;5.40;99.90;;;;;;4964342;28;20095;-89
2022/04/12 04:17:01;;;;;;;15.68;8.75;;;5.70;99.90;;;;;;4980188;28;20061;-89
2022/04/12 04:19:27;;;;;;;14.52;8.45;;;5.60;99.90;;;;;;4996929;28;20499;-89
2022/04/12 04:21:52;;;;;;;12.38;8.60;;;5.30;99.90;;;;;;4996669;28;20118;-89
2022/04/12 04:24:18;;;;;;;13.20;8.57;;;5.30;99.90;;;;;;4996649;28;20046;-90
2022/04/12 04:26:44;;;;;;;12.90;9.10;;;5.30;99.90;;;;;;4980543;28;20050;-89
2022/04/12 04:29:10;;;;;;;15.60;9.20;;;5.30;99.90;;;;;;4996734;28;20128;-90
2022/04/12 04:31:36;;;;;;;15.10;8.88;;;5.30;99.90;;;;;;4964010;28;20077;-89
2022/04/12 04:34:01;;;;;;;13.95;8.48;;;5.30;99.90;;;;;;4980502;28;20048;-89
2022/04/12 04:36:27;;;;;;;12.52;8.57;;;5.30;99.90;;;;;;4997049;28;20042;-89
2022/04/12 04:38:53;;;;;;;14.40;9.25;;;5.30;99.90;;;;;;4996661;28;20038;-89
2022/04/12 04:41:18;;;;;;;13.40;8.00;;;5.90;99.90;;;;;;5012730;28;20502;-88
2022/04/12 04:43:46;;;;;;;14.75;8.80;;;5.30;99.90;;;;;;4995693;28;20046;-89
2022/04/12 04:46:13;;;;;;;13.27;8.85;;;5.30;99.90;;;;;;5012816;28;20049;-89
2022/04/12 04:48:39;;;;;;;14.98;9.13;;;5.30;99.90;;;;;;4964472;28;20116;-89
2022/04/12 04:51:05;;;;;;;14.52;8.50;;;5.30;99.90;;;;;;4996355;28;20046;-89
2022/04/12 04:53:30;;;;;;;13.40;8.35;;;5.30;99.90;;;;;;4980216;28;20053;-89
2022/04/12 04:55:56;;;;;;;15.13;9.02;;;5.30;99.90;;;;;;4996934;28;20114;-89
2022/04/12 04:58:22;;;;;;;12.77;9.00;;;5.30;99.90;;;;;;4980155;28;20045;-89
2022/04/12 05:00:47;;;;;;;14.88;8.73;;;5.30;99.90;;;;;;5012571;28;20497;-89
2022/04/12 05:03:13;;;;;;;14.93;8.77;;;5.20;99.90;;;;;;4996270;28;20056;-89
2022/04/12 05:05:39;;;;;;;13.88;8.68;;;5.70;99.90;;;;;;4980729;28;20522;-89
2022/04/12 05:08:05;;;;;;;15.23;9.38;;;5.20;99.90;;;;;;4980590;28;20439;-89
2022/04/12 05:10:34;;;;;;;17.88;12.43;;;5.30;99.90;;;;;;4996206;28;20046;-89
2022/04/12 05:13:01;;;;;;;14.48;8.60;;;5.20;99.90;;;;;;5013226;28;20054;-89
2022/04/12 05:15:28;;;;;;;14.35;9.05;;;5.20;99.90;;;;;;5013250;28;20042;-89
2022/04/12 05:17:55;;;;;;;14.05;8.55;;;5.30;99.90;;;;;;5012700;28;20085;-89
2022/04/12 05:20:22;;;;;;;15.63;9.77;;;5.30;99.90;;;;;;4996661;28;20050;-89
2022/04/12 05:22:49;;;;;;;15.32;9.65;;;5.30;99.90;;;;;;4980082;28;20064;-89
2022/04/12 05:25:15;;;;;;;15.90;8.38;;;5.30;99.90;;;;;;4996110;28;20108;-90
2022/04/12 05:27:43;;;;;;;13.38;8.30;;;5.30;99.90;;;;;;4996161;28;20056;-89
2022/04/12 05:30:10;;;;;;;13.73;8.38;;;6.00;99.90;;;;;;5012621;28;20042;-89
2022/04/12 05:32:37;;;;;;;12.10;8.85;;;5.30;99.90;;;;;;4996310;28;20085;-89
2022/04/12 05:35:04;;;;;;;15.23;8.68;;;5.40;99.90;;;;;;5012527;28;20042;-89
2022/04/12 05:37:31;;;;;;;13.27;8.55;;;5.30;99.90;;;;;;5012179;28;20482;-89
2022/04/12 05:39:56;;;;;;;14.40;9.48;;;5.40;99.90;;;;;;4979905;28;20045;-89
2022/04/12 05:42:25;;;;;;;13.50;8.18;;;5.90;99.90;;;;;;4963662;28;20148;-89
2022/04/12 05:44:51;;;;;;;14.95;8.50;;;5.50;99.90;;;;;;5012273;28;20065;-90
2022/04/12 05:47:17;;;;;;;13.88;8.38;;;6.00;99.90;;;;;;4979201;28;20137;-89
2022/04/12 05:49:42;;;;;;;13.50;8.30;;;6.00;99.90;;;;;;4995880;28;20042;-89
2022/04/12 05:52:08;;;;;;;14.63;8.55;;;5.70;99.90;;;;;;4979839;28;20141;-89
2022/04/12 05:54:34;;;;;;;13.43;8.70;;;5.80;99.90;;;;;;5013244;28;20050;-89
2022/04/12 05:57:00;;;;;;;12.90;8.48;;;6.00;99.90;;;;;;4999318;28;20073;-89
2022/04/12 05:59:26;;;;;;;15.20;8.82;;;6.70;99.90;;;;;;4983642;28;20092;-89
2022/04/12 06:01:52;;;;;;;14.02;9.27;;;6.40;99.90;;;;;;4983257;28;20453;-90
2022/04/12 06:04:17;;;;;;;13.50;8.95;;;6.50;99.90;;;;;;4998941;28;20442;-89
2022/04/12 06:06:43;;;;;;;12.13;8.88;;;6.70;99.90;;;;;;4982947;28;20137;-88
2022/04/12 06:09:09;;;;;;;13.68;8.95;;;6.90;99.90;;;;;;4998815;28;20494;-88
2022/04/12 06:11:35;;;;;;;13.63;9.23;;;7.00;99.90;;;;;;4998669;28;20049;-88
2022/04/12 06:14:01;;;;;;;15.50;9.88;;;7.10;99.90;;;;;;4999027;28;20108;-87
2022/04/12 06:16:26;;;;;;;13.75;8.48;;;7.30;99.90;;;;;;4998422;28;20054;-88
2022/04/12 06:18:53;;;;;;;14.05;8.38;;;7.30;99.90;;;;;;4998657;28;20133;-87
2022/04/12 06:21:19;;;;;;;13.68;8.50;;;7.40;99.90;;;;;;4998594;28;20056;-88
2022/04/12 06:23:45;;;;;;;15.90;9.30;;;7.40;99.90;;;;;;4982569;28;20057;-86
2022/04/12 06:26:11;;;;;;;13.48;8.85;;;7.50;99.90;;;;;;4998859;28;20133;-87
2022/04/12 06:28:37;;;;;;;12.68;7.85;;;7.50;99.90;;;;;;4982370;28;20056;-85
2022/04/12 06:31:02;;;;;;;12.68;8.52;;;7.50;99.90;;;;;;4982936;28;20053;-85
2022/04/12 06:33:28;;;;;;;14.60;8.73;;;7.60;99.90;;;;;;4998440;28;20050;-86
2022/04/12 06:35:54;;;;;;;14.80;8.20;;;7.60;99.90;;;;;;4998213;28;20092;-86
2022/04/12 06:38:20;;;;;;;12.65;7.40;;;7.60;99.90;;;;;;4998394;28;20041;-85
2022/04/12 06:40:48;;;;;;;12.32;8.30;;;7.70;99.90;;;;;;4982271;28;20049;-87
2022/04/12 06:43:14;;;;;;;12.18;7.60;;;7.80;99.90;;;;;;5000286;28;20054;-86
2022/04/12 06:45:39;;;;;;;13.20;8.52;;;7.90;99.90;;;;;;5000265;28;20050;-87
2022/04/12 06:48:05;;;;;;;14.43;9.23;;;8.00;99.90;;;;;;4981386;28;20064;-88
2022/04/12 06:50:32;;;;;;;13.43;8.43;;;8.10;99.90;;;;;;4998860;28;20111;-87
2022/04/12 06:52:58;;;;;;;13.68;7.97;;;8.20;99.90;;;;;;4998103;28;20414;-87
2022/04/12 06:55:24;;;;;;;16.52;8.93;;;8.40;99.90;;;;;;5014548;28;20042;-84
2022/04/12 06:57:50;;;;;;;12.20;8.20;;;8.40;99.90;;;;;;4998350;28;20072;-87
2022/04/12 07:00:17;;;;;;;12.70;8.70;;;8.50;99.90;;;;;;4998038;28;20038;-86
2022/04/12 07:02:43;;;;;;;14.23;7.68;;;8.60;99.90;;;;;;4981868;28;20506;-85
2022/04/12 07:05:09;;;;;;;10.77;6.82;;;8.60;99.90;;;;;;4997844;28;20046;-86
2022/04/12 07:07:39;;;;;;;12.55;6.82;;;8.60;99.90;;;;;;4997033;28;20505;-87
2022/04/12 07:10:07;;;;;;;13.10;7.57;;;8.60;99.90;;;;;;5014011;28;20053;-86
2022/04/12 07:12:33;;;;;;;11.50;7.32;;;8.60;99.90;;;;;;4996561;28;20073;-88
2022/04/12 07:15:03;;;;;;;12.73;7.57;;;8.60;99.90;;;;;;4980883;28;20092;-87
2022/04/12 07:17:28;;;;;;;13.05;7.60;;;8.60;99.90;;;;;;4997437;28;20133;-88
2022/04/12 07:19:54;;;;;;;13.48;7.68;;;8.60;99.90;;;;;;5013803;28;20050;-88
2022/04/12 07:22:20;;;;;;;13.18;7.90;;;8.60;99.90;;;;;;4981701;28;20042;-88
2022/04/12 07:24:45;;;;;;;13.32;7.75;;;8.60;99.90;;;;;;4997460;28;20068;-89
2022/04/12 07:27:11;;;;;;;11.63;7.25;;;8.60;99.90;;;;;;4981228;28;20050;-88
2022/04/12 07:29:38;;;;;;;10.80;7.28;;;8.70;99.90;;;;;;4965151;28;20049;-89
2022/04/12 07:32:04;;;;;;;13.40;7.45;;;8.70;99.90;;;;;;5013492;28;20053;-89
2022/04/12 07:34:30;;;;;;;12.77;7.28;;;8.80;99.90;;;;;;5013337;28;20046;-89
2022/04/12 07:36:56;;;;;;;13.82;7.07;;;8.90;99.90;;;;;;5013618;28;20045;-89
2022/04/12 07:39:23;;;;;;;12.85;7.30;;;8.90;99.90;;;;;;4964928;28;20115;-90
2022/04/12 07:41:50;;;;;;;12.30;7.63;;;9.00;99.90;;;;;;4981892;28;20065;-88
2022/04/12 07:44:17;;;;;;;13.95;7.75;;;9.10;99.90;;;;;;4997094;28;20440;-89
2022/04/12 07:46:43;;;;;;;11.05;6.78;;;9.20;99.90;;;;;;5013133;28;20057;-89
2022/04/12 07:49:09;;;;;;;11.48;7.65;;;9.40;99.90;;;;;;4996742;28;20507;-88
2022/04/12 07:51:35;;;;;;;11.00;7.18;;;9.60;99.90;;;;;;4997088;28;20046;-88
2022/04/12 07:54:01;;;;;;;10.00;7.03;;;9.80;99.90;;;;;;5013398;28;20399;-88
2022/04/12 07:56:31;;;;;;;13.20;7.35;;;9.90;99.90;;;;;;4981050;28;20042;-87
2022/04/12 07:58:57;;;;;;;12.77;7.50;;;10.10;99.90;;;;;;5014397;28;20081;-88
2022/04/12 08:01:22;;;;;;;11.35;7.03;;;10.20;99.90;;;;;;4997358;28;20041;-88
2022/04/12 08:03:48;;;;;;;11.50;7.13;;;10.30;99.90;;;;;;4996805;28;20399;-87
2022/04/12 08:06:14;;;;;;;11.93;7.63;;;10.50;99.90;;;;;;4980904;28;20053;-86
2022/04/12 08:08:40;;;;;;;12.63;7.10;;;10.60;99.90;;;;;;4997377;28;20054;-88
2022/04/12 08:11:07;;;;;;;10.23;6.50;;;10.80;99.90;;;;;;4998030;28;20052;-88
2022/04/12 08:13:33;;;;;;;11.02;7.20;;;10.90;99.90;;;;;;4980904;28;20180;-88
2022/04/12 08:15:59;;;;;;;11.23;7.13;;;11.00;99.90;;;;;;4996984;28;20042;-88
2022/04/12 08:18:25;;;;;;;11.65;7.55;;;11.10;99.90;;;;;;5012769;28;20087;-87
2022/04/12 08:20:51;;;;;;;12.00;6.95;;;11.20;99.90;;;;;;5013431;28;20399;-88
2022/04/12 08:23:17;;;;;;;11.90;7.03;;;11.30;99.90;;;;;;4997573;28;20042;-87
2022/04/12 08:25:43;;;;;;;11.52;7.13;;;11.40;99.90;;;;;;5013009;28;20046;-88
2022/04/12 08:28:09;;;;;;;10.80;6.97;;;11.50;99.90;;;;;;4996508;28;20046;-88
2022/04/12 08:30:36;;;;;;;11.52;7.40;;;11.50;99.90;;;;;;4997627;28;20046;-89
2022/04/12 08:33:02;;;;;;;9.95;6.93;;;11.60;99.90;;;;;;4998359;28;20083;-89
2022/04/12 08:35:28;;;;;;;13.80;8.07;;;11.70;99.90;;;;;;4997630;28;20045;-88
2022/04/12 08:37:54;;;;;;;12.18;7.88;;;11.80;99.90;;;;;;5013796;28;20050;-88
2022/04/12 08:40:20;;;;;;;12.10;7.75;;;11.90;99.90;;;;;;4997245;28;20391;-88
2022/04/12 08:42:47;;;;;;;11.02;7.05;;;12.00;99.90;;;;;;5013415;28;20099;-88
2022/04/12 08:45:13;;;;;;;10.40;7.13;;;12.10;99.90;;;;;;4996910;28;20050;-88
2022/04/12 08:47:41;;;;;;;12.45;7.68;;;12.10;99.90;;;;;;4996298;28;20413;-88
2022/04/12 08:50:09;;;;;;;11.93;6.78;;;12.20;99.90;;;;;;5012652;28;20081;-87
2022/04/12 08:52:36;;;;;;;12.85;7.35;;;12.30;99.90;;;;;;4996565;28;20558;-88
2022/04/12 08:55:04;;;;;;;10.27;6.60;;;12.40;99.90;;;;;;4996127;28;20097;-88
2022/04/12 08:57:30;;;;;;;9.32;6.90;;;12.50;99.90;;;;;;4980894;28;20148;-89
2022/04/12 08:59:56;;;;;;;11.10;6.32;;;12.60;99.90;;;;;;4995668;28;20081;-90
2022/04/12 09:02:22;;;;;;;10.40;7.32;;;12.80;99.90;;;;;;4996232;28;20410;-90
2022/04/12 09:04:48;;;;;;;11.00;7.53;;;13.00;99.90;;;;;;5012518;28;20419;-88
2022/04/12 09:07:14;;;;;;;12.18;6.65;;;13.20;99.90;;;;;;4996167;28;20184;-86
2022/04/12 09:09:42;;;;;;;10.60;6.82;;;13.30;99.90;;;;;;4980020;28;20141;-87
2022/04/12 09:12:13;;;;;;;10.43;6.72;;;13.40;99.90;;;;;;4996796;28;20058;-86
2022/04/12 09:14:52;;;;;;;10.75;7.00;;;13.50;99.90;;;;;;5013189;28;20104;-88
2022/04/12 09:17:36;;;;;;;10.90;7.43;;;13.60;99.90;;;;;;5012330;28;20077;-90
2022/04/12 09:20:14;;;;;;;11.10;7.13;;;13.70;99.90;;;;;;5012764;28;20054;-86
2022/04/12 09:22:41;;;;;;;10.70;6.78;;;13.90;99.90;;;;;;5012300;28;20060;-87
2022/04/12 09:25:10;;;;;;;11.00;6.93;;;14.00;99.90;;;;;;4995953;28;20050;-90
2022/04/12 09:27:37;;;;;;;10.63;6.60;;;14.20;99.90;;;;;;5013017;28;20434;-87
2022/04/12 09:30:11;;;;;;;11.55;6.70;;;14.30;99.90;;;;;;4996982;28;20506;-89
2022/04/12 09:32:56;;;;;;;11.18;6.97;;;14.40;99.90;;;;;;5016301;28;20471;-87
2022/04/12 09:35:22;;;;;;;10.93;7.05;;;14.60;99.90;;;;;;5016073;28;20053;-87
2022/04/12 09:37:47;;;;;;;9.98;7.25;;;14.70;99.90;;;;;;5016076;28;20386;-87
2022/04/12 09:40:17;;;;;;;11.20;6.68;;;14.70;99.90;;;;;;5016817;28;20188;-88
2022/04/12 09:42:43;;;;;;;10.35;6.78;;;14.90;99.90;;;;;;4999718;28;20041;-88
2022/04/12 09:45:27;;;;;;;9.77;6.80;;;14.90;99.90;;;;;;5015743;28;20107;-86
2022/04/12 09:47:54;;;;;;;11.73;6.57;;;14.90;99.90;;;;;;5015389;28;20097;-87
2022/04/12 09:50:26;;;;;;;10.25;7.03;;;14.90;99.90;;;;;;5015482;28;20050;-87
2022/04/12 09:52:57;;;;;;;12.18;6.63;;;15.00;99.90;;;;;;5000278;28;20042;-87
2022/04/12 09:55:40;;;;;;;10.02;6.60;;;15.10;99.90;;;;;;5016595;28;20042;-87
2022/04/12 09:58:09;;;;;;;9.85;6.75;;;15.20;99.90;;;;;;4999231;28;20046;-88
2022/04/12 10:00:35;;;;;;;10.43;7.05;;;15.30;99.90;;;;;;4999141;28;20161;-86
2022/04/12 10:03:04;;;;;;;11.38;6.80;;;15.30;99.90;;;;;;4999654;28;20072;-87
2022/04/12 10:05:30;;;;;;;9.35;6.05;;;15.40;99.90;;;;;;4999249;28;20081;-87
2022/04/12 10:08:00;;;;;;;9.23;6.75;;;15.50;99.90;;;;;;5015492;28;20058;-87
2022/04/12 10:10:27;;;;;;;9.50;7.20;;;15.60;99.90;;;;;;5015579;28;20133;-86
2022/04/12 10:12:53;;;;;;;8.85;6.50;;;15.90;99.90;;;;;;5015488;28;20045;-88
2022/04/12 10:15:23;;;;;;;10.77;6.20;;;16.00;99.90;;;;;;5014989;28;20056;-87
2022/04/12 10:17:50;;;;;;;9.20;6.82;;;16.10;99.90;;;;;;4999639;28;20057;-87
2022/04/12 10:20:18;;;;;;;9.77;7.30;;;16.20;99.90;;;;;;5015338;28;20049;-89
2022/04/12 10:22:45;;;;;;;12.35;7.70;;;16.30;99.90;;;;;;5001078;28;20085;-89
2022/04/12 10:25:17;;;;;;;11.48;7.35;;;16.30;99.90;;;;;;5015777;28;20100;-90
2022/04/12 10:27:43;;;;;;;10.82;7.00;;;16.30;99.90;;;;;;4999539;28;20054;-87
2022/04/12 10:30:15;;;;;;;10.73;7.03;;;16.40;99.90;;;;;;5014810;28;20050;-87
2022/04/12 10:33:04;;;;;;;9.75;6.60;;;16.40;99.90;;;;;;5015512;28;20136;-85
2022/04/12 10:35:56;;;;;;;10.98;6.80;;;16.50;99.90;;;;;;5015172;28;20052;-88
2022/04/12 10:38:24;;;;;;;9.52;6.55;;;16.50;99.90;;;;;;4985801;28;20093;-90
2022/04/12 10:40:53;;;;;;;9.00;6.22;;;16.60;99.90;;;;;;4998080;28;20046;-89
2022/04/12 10:43:30;;;;;;;10.65;6.97;;;16.80;99.90;;;;;;5014355;28;20081;-87
2022/04/12 10:45:57;;;;;;;11.40;6.30;;;16.80;99.90;;;;;;4998658;28;20050;-86
2022/04/12 10:48:26;;;;;;;8.82;6.47;;;17.00;99.90;;;;;;4965727;28;20054;-88
2022/04/12 10:50:58;;;;;;;10.65;6.88;;;17.10;99.90;;;;;;4998167;28;20045;-88
2022/04/12 10:53:39;;;;;;;10.98;6.75;;;17.20;99.90;;;;;;4998407;28;20119;-88
2022/04/12 10:56:16;;;;;;;8.57;6.25;;;17.30;99.90;;;;;;5014978;28;20065;-90
2022/04/12 10:58:43;;;;;;;9.75;6.45;;;17.40;99.90;;;;;;4998323;28;20459;-88
2022/04/12 11:01:28;;;;;;;10.73;6.40;;;17.40;99.90;;;;;;4982070;28;20141;-88
2022/04/12 11:03:55;;;;;;;9.98;6.55;;;17.50;99.90;;;;;;4997776;28;20060;-90
2022/04/12 11:06:26;;;;;;;9.98;6.72;;;17.50;99.90;;;;;;4997986;28;20042;-89
2022/04/12 11:08:58;;;;;;;10.45;6.65;;;17.50;99.90;;;;;;5015082;28;20073;-90
2022/04/12 11:11:33;;;;;;;9.85;6.65;;;17.50;99.90;;;;;;4998274;28;20061;-89
2022/04/12 11:14:20;;;;;;;7.82;6.38;;;17.70;99.90;;;;;;4998249;28;20058;-88
2022/04/12 11:16:51;;;;;;;;;;;17.70;99.90;;;;;;5015144;28;20116;-89
2022/04/12 11:19:24;;;;;;;10.43;6.63;;;17.70;99.90;;;;;;4998688;28;20286;-87
2022/04/12 11:21:54;;;;;;;10.52;6.78;;;17.80;99.90;;;;;;4981953;28;20054;-87
2022/04/12 11:24:24;;;;;;;10.65;7.28;;;17.70;99.90;;;;;;5014776;28;20058;-89
2022/04/12 11:27:18;;;;;;;9.07;6.35;;;17.80;99.90;;;;;;4997548;28;20053;-85
2022/04/12 11:29:43;;;;;;;9.45;6.40;;;17.80;99.90;;;;;;5011057;28;20112;-84
2022/04/12 11:32:11;;;;;;;9.73;6.55;;;17.80;99.90;;;;;;4997123;28;20050;-81
2022/04/12 11:34:38;;;;;;;8.40;6.53;;;17.90;99.90;;;;;;5013847;28;20562;-86
2022/04/12 11:37:07;;;;;;;9.68;6.47;;;17.90;99.90;;;;;;4997455;28;20133;-88
2022/04/12 11:39:41;;;;;;;12.00;7.45;;;17.90;99.90;;;;;;4997626;28;20394;-90
2022/04/12 11:42:13;;;;;;;10.00;6.72;;;17.90;99.90;;;;;;5014654;28;20042;-89
2022/04/12 11:44:39;;;;;;;9.75;6.95;;;17.90;99.90;;;;;;5013743;28;20143;-90
2022/04/12 11:47:10;;;;;;;10.30;6.43;;;17.90;99.90;;;;;;4997107;28;20058;-89
2022/04/12 11:49:38;;;;;;;9.95;6.97;;;17.90;99.90;;;;;;4997944;28;20054;-90
2022/04/12 11:52:07;;;;;;;11.07;7.20;;;18.00;99.90;;;;;;4997245;28;20053;-90
2022/04/12 11:54:35;;;;;;;11.20;8.15;;;18.20;99.90;;;;;;4996899;28;20042;-87
2022/04/12 11:57:09;;;;;;;10.68;7.13;;;18.40;99.90;;;;;;4981058;28;20371;-87
2022/04/12 11:59:46;;;;;;;11.05;6.78;;;18.50;99.90;;;;;;4997720;28;20081;-90
2022/04/12 12:02:13;;;;;;;12.20;7.22;;;18.50;99.90;;;;;;5013102;28;20054;-89
2022/04/12 12:04:47;;;;;;;10.05;7.18;;;18.50;99.90;;;;;;5013227;28;20060;-87
2022/04/12 12:07:14;;;;;;;9.93;6.72;;;18.60;99.90;;;;;;4996827;28;20041;-87
2022/04/12 12:09:51;;;;;;;11.25;6.95;;;18.70;99.90;;;;;;4996942;28;20065;-86
2022/04/12 12:12:17;;;;;;;10.35;6.47;;;18.70;99.90;;;;;;4981095;28;20072;-86
2022/04/12 12:14:43;;;;;;;9.82;6.75;;;18.80;99.90;;;;;;4980623;28;20136;-88
2022/04/12 12:17:13;;;;;;;11.18;7.13;;;19.00;99.90;;;;;;4996292;28;20454;-85
2022/04/12 12:19:40;;;;;;;12.85;7.57;;;19.20;99.90;;;;;;4997012;28;20052;-88
2022/04/12 12:22:10;;;;;;;14.35;7.63;;;19.40;99.90;;;;;;4996615;28;20049;-87
2022/04/12 12:24:55;;;;;;;13.43;9.05;;;19.60;99.90;;;;;;4997133;28;20113;-88
2022/04/12 12:27:39;;;;;;;11.98;7.50;;;19.70;99.90;;;;;;4996659;28;20569;-87
2022/04/12 12:30:14;;;;;;;11.18;6.57;;;19.90;99.90;;;;;;5012811;28;20057;-88
2022/04/12 12:32:42;;;;;;;11.73;6.82;;;19.80;99.90;;;;;;4996815;28;20482;-84
2022/04/12 12:35:10;;;;;;;11.57;7.85;;;19.80;99.90;;;;;;5013503;28;20138;-86
2022/04/12 12:37:37;;;;;;;11.00;6.25;;;20.00;99.90;;;;;;4996793;28;20042;-87
2022/04/12 12:40:16;;;;;;;11.60;6.90;;;20.20;99.90;;;;;;4996709;28;20054;-85
2022/04/12 12:42:43;;;;;;;11.80;7.00;;;20.60;99.90;;;;;;5012872;28;20046;-86
2022/04/12 12:45:13;;;;;;;12.38;7.88;;;20.70;99.90;;;;;;4996225;28;20085;-86
2022/04/12 12:47:44;;;;;;;11.50;7.28;;;20.80;99.90;;;;;;5012191;28;20427;-88